sensor_id;sensor_type;location;lat;lon;timestamp;P1;durP1;ratioP1;P2;durP2;ratioP2
69748;SDS011;57019;52.354;6.584;2022-12-07T00:01:06;2.80;;;0.70;;
69748;SDS011;57019;52.354;6.584;2022-12-07T00:03:33;3.30;;;0.80;;
69748;SDS011;57019;52.354;6.584;2022-12-07T00:06:00;3.15;;;0.77;;
69748;SDS011;57019;52.354;6.584;2022-12-07T00:08:27;3.25;;;0.80;;
69748;SDS011;57019;52.354;6.584;2022-12-07T00:10:52;4.10;;;0.87;;
69748;SDS011;57019;52.354;6.584;2022-12-07T00:13:17;3.37;;;0.90;;
69748;SDS011;57019;52.354;6.584;2022-12-07T00:15:43;3.20;;;0.70;;
69748;SDS011;57019;52.354;6.584;2022-12-07T00:18:09;2.43;;;0.70;;
69748;SDS011;57019;52.354;6.584;2022-12-07T00:20:34;3.13;;;0.77;;
69748;SDS011;57019;52.354;6.584;2022-12-07T00:23:00;3.13;;;0.70;;
69748;SDS011;57019;52.354;6.584;2022-12-07T00:25:25;2.77;;;0.73;;
69748;SDS011;57019;52.354;6.584;2022-12-07T00:27:52;4.27;;;0.90;;
69748;SDS011;57019;52.354;6.584;2022-12-07T00:30:18;3.05;;;0.80;;
69748;SDS011;57019;52.354;6.584;2022-12-07T00:32:43;3.17;;;0.73;;
69748;SDS011;57019;52.354;6.584;2022-12-07T00:35:09;1.90;;;0.60;;
69748;SDS011;57019;52.354;6.584;2022-12-07T00:37:34;3.47;;;0.80;;
69748;SDS011;57019;52.354;6.584;2022-12-07T00:40:00;3.75;;;0.82;;
69748;SDS011;57019;52.354;6.584;2022-12-07T00:42:25;3.93;;;0.77;;
69748;SDS011;57019;52.354;6.584;2022-12-07T00:44:51;2.43;;;0.63;;
69748;SDS011;57019;52.354;6.584;2022-12-07T00:47:16;2.80;;;0.70;;
69748;SDS011;57019;52.354;6.584;2022-12-07T00:49:41;3.37;;;0.70;;
69748;SDS011;57019;52.354;6.584;2022-12-07T00:52:06;2.77;;;0.70;;
69748;SDS011;57019;52.354;6.584;2022-12-07T00:54:32;3.07;;;0.70;;
69748;SDS011;57019;52.354;6.584;2022-12-07T00:56:57;3.47;;;0.80;;
69748;SDS011;57019;52.354;6.584;2022-12-07T00:59:22;3.20;;;0.90;;
69748;SDS011;57019;52.354;6.584;2022-12-07T01:01:48;3.70;;;0.80;;
69748;SDS011;57019;52.354;6.584;2022-12-07T01:04:13;2.93;;;0.77;;
69748;SDS011;57019;52.354;6.584;2022-12-07T01:06:39;3.65;;;0.70;;
69748;SDS011;57019;52.354;6.584;2022-12-07T01:09:04;3.33;;;0.70;;
69748;SDS011;57019;52.354;6.584;2022-12-07T01:11:31;3.20;;;0.73;;
69748;SDS011;57019;52.354;6.584;2022-12-07T01:13:57;3.53;;;0.70;;
69748;SDS011;57019;52.354;6.584;2022-12-07T01:16:25;5.35;;;0.80;;
69748;SDS011;57019;52.354;6.584;2022-12-07T01:18:52;3.67;;;1.15;;
69748;SDS011;57019;52.354;6.584;2022-12-07T01:21:21;3.33;;;0.83;;
69748;SDS011;57019;52.354;6.584;2022-12-07T01:23:51;3.05;;;0.77;;
69748;SDS011;57019;52.354;6.584;2022-12-07T01:26:18;2.97;;;0.70;;
69748;SDS011;57019;52.354;6.584;2022-12-07T01:28:45;3.53;;;0.82;;
69748;SDS011;57019;52.354;6.584;2022-12-07T01:31:16;3.20;;;0.80;;
69748;SDS011;57019;52.354;6.584;2022-12-07T01:33:44;3.92;;;0.80;;
69748;SDS011;57019;52.354;6.584;2022-12-07T01:38:41;4.07;;;0.80;;
69748;SDS011;57019;52.354;6.584;2022-12-07T01:41:08;2.55;;;0.75;;
69748;SDS011;57019;52.354;6.584;2022-12-07T01:43:34;3.15;;;0.77;;
69748;SDS011;57019;52.354;6.584;2022-12-07T01:46:00;3.57;;;0.90;;
69748;SDS011;57019;52.354;6.584;2022-12-07T01:48:34;4.10;;;0.80;;
69748;SDS011;57019;52.354;6.584;2022-12-07T01:51:04;3.83;;;0.80;;
69748;SDS011;57019;52.354;6.584;2022-12-07T01:53:34;2.97;;;0.75;;
69748;SDS011;57019;52.354;6.584;2022-12-07T01:56:03;3.25;;;0.70;;
69748;SDS011;57019;52.354;6.584;2022-12-07T01:58:31;2.33;;;0.60;;
69748;SDS011;57019;52.354;6.584;2022-12-07T02:00:57;3.43;;;0.70;;
69748;SDS011;57019;52.354;6.584;2022-12-07T02:03:27;2.97;;;0.80;;
69748;SDS011;57019;52.354;6.584;2022-12-07T02:06:02;2.83;;;0.73;;
69748;SDS011;57019;52.354;6.584;2022-12-07T02:08:29;2.42;;;0.70;;
69748;SDS011;57019;52.354;6.584;2022-12-07T02:10:55;2.67;;;0.90;;
69748;SDS011;57019;52.354;6.584;2022-12-07T02:13:24;2.95;;;0.70;;
69748;SDS011;57019;52.354;6.584;2022-12-07T02:21:35;2.45;;;0.70;;
69748;SDS011;57019;52.354;6.584;2022-12-07T02:27:19;2.45;;;0.68;;
69748;SDS011;57019;52.354;6.584;2022-12-07T02:29:28;3.23;;;0.80;;
69748;SDS011;57019;52.354;6.584;2022-12-07T02:32:07;3.53;;;0.80;;
69748;SDS011;57019;52.354;6.584;2022-12-07T02:34:43;2.55;;;0.63;;
69748;SDS011;57019;52.354;6.584;2022-12-07T02:42:49;2.47;;;0.50;;
69748;SDS011;57019;52.354;6.584;2022-12-07T02:45:21;3.03;;;0.70;;
69748;SDS011;57019;52.354;6.584;2022-12-07T02:47:50;2.88;;;0.60;;
69748;SDS011;57019;52.354;6.584;2022-12-07T02:50:19;4.78;;;0.70;;
69748;SDS011;57019;52.354;6.584;2022-12-07T02:52:45;3.03;;;0.70;;
69748;SDS011;57019;52.354;6.584;2022-12-07T02:55:11;3.00;;;0.70;;
69748;SDS011;57019;52.354;6.584;2022-12-07T03:00:31;2.75;;;0.60;;
69748;SDS011;57019;52.354;6.584;2022-12-07T03:03:09;3.20;;;0.70;;
69748;SDS011;57019;52.354;6.584;2022-12-07T03:08:11;5.65;;;0.80;;
69748;SDS011;57019;52.354;6.584;2022-12-07T03:16:02;3.28;;;0.88;;
69748;SDS011;57019;52.354;6.584;2022-12-07T03:18:31;3.65;;;0.70;;
69748;SDS011;57019;52.354;6.584;2022-12-07T03:21:32;4.15;;;0.80;;
69748;SDS011;57019;52.354;6.584;2022-12-07T03:24:03;2.97;;;0.80;;
69748;SDS011;57019;52.354;6.584;2022-12-07T03:26:36;2.55;;;0.60;;
69748;SDS011;57019;52.354;6.584;2022-12-07T03:29:07;3.60;;;0.68;;
69748;SDS011;57019;52.354;6.584;2022-12-07T03:31:41;3.38;;;0.60;;
69748;SDS011;57019;52.354;6.584;2022-12-07T03:37:03;3.43;;;0.53;;
69748;SDS011;57019;52.354;6.584;2022-12-07T03:39:45;2.67;;;0.60;;
69748;SDS011;57019;52.354;6.584;2022-12-07T03:42:18;2.80;;;0.60;;
69748;SDS011;57019;52.354;6.584;2022-12-07T03:44:44;3.17;;;0.80;;
69748;SDS011;57019;52.354;6.584;2022-12-07T03:47:18;2.33;;;0.50;;
69748;SDS011;57019;52.354;6.584;2022-12-07T03:49:48;4.70;;;0.60;;
69748;SDS011;57019;52.354;6.584;2022-12-07T03:52:23;3.10;;;0.68;;
69748;SDS011;57019;52.354;6.584;2022-12-07T03:57:29;3.00;;;0.65;;
69748;SDS011;57019;52.354;6.584;2022-12-07T03:59:58;4.30;;;0.80;;
69748;SDS011;57019;52.354;6.584;2022-12-07T04:02:25;2.58;;;0.60;;
69748;SDS011;57019;52.354;6.584;2022-12-07T04:04:52;2.70;;;0.60;;
69748;SDS011;57019;52.354;6.584;2022-12-07T04:07:18;1.80;;;0.53;;
69748;SDS011;57019;52.354;6.584;2022-12-07T04:09:43;3.33;;;0.50;;
69748;SDS011;57019;52.354;6.584;2022-12-07T04:12:10;2.53;;;0.60;;
69748;SDS011;57019;52.354;6.584;2022-12-07T04:14:35;3.23;;;0.50;;
69748;SDS011;57019;52.354;6.584;2022-12-07T04:17:00;1.43;;;0.50;;
69748;SDS011;57019;52.354;6.584;2022-12-07T04:19:28;2.97;;;0.60;;
69748;SDS011;57019;52.354;6.584;2022-12-07T04:21:55;3.17;;;0.70;;
69748;SDS011;57019;52.354;6.584;2022-12-07T04:24:22;2.90;;;0.68;;
69748;SDS011;57019;52.354;6.584;2022-12-07T04:26:47;2.53;;;0.60;;
69748;SDS011;57019;52.354;6.584;2022-12-07T04:29:13;2.35;;;0.70;;
69748;SDS011;57019;52.354;6.584;2022-12-07T04:31:39;3.45;;;0.60;;
69748;SDS011;57019;52.354;6.584;2022-12-07T04:34:05;1.83;;;0.50;;
69748;SDS011;57019;52.354;6.584;2022-12-07T04:36:31;3.03;;;0.60;;
69748;SDS011;57019;52.354;6.584;2022-12-07T04:38:57;1.75;;;0.50;;
69748;SDS011;57019;52.354;6.584;2022-12-07T04:41:23;3.00;;;0.70;;
69748;SDS011;57019;52.354;6.584;2022-12-07T04:43:55;2.28;;;0.57;;
69748;SDS011;57019;52.354;6.584;2022-12-07T04:46:23;1.70;;;0.50;;
69748;SDS011;57019;52.354;6.584;2022-12-07T04:48:50;2.70;;;0.60;;
69748;SDS011;57019;52.354;6.584;2022-12-07T04:51:18;3.50;;;0.70;;
69748;SDS011;57019;52.354;6.584;2022-12-07T04:53:45;2.85;;;0.60;;
69748;SDS011;57019;52.354;6.584;2022-12-07T04:56:10;2.30;;;0.60;;
69748;SDS011;57019;52.354;6.584;2022-12-07T04:58:36;3.70;;;0.70;;
69748;SDS011;57019;52.354;6.584;2022-12-07T05:01:01;2.83;;;0.50;;
69748;SDS011;57019;52.354;6.584;2022-12-07T05:03:26;3.50;;;0.63;;
69748;SDS011;57019;52.354;6.584;2022-12-07T05:05:53;1.63;;;0.50;;
69748;SDS011;57019;52.354;6.584;2022-12-07T05:08:18;3.72;;;0.65;;
69748;SDS011;57019;52.354;6.584;2022-12-07T05:10:44;2.13;;;0.53;;
69748;SDS011;57019;52.354;6.584;2022-12-07T05:13:09;3.50;;;0.50;;
69748;SDS011;57019;52.354;6.584;2022-12-07T05:15:34;2.63;;;0.60;;
69748;SDS011;57019;52.354;6.584;2022-12-07T05:18:00;3.73;;;0.80;;
69748;SDS011;57019;52.354;6.584;2022-12-07T05:20:25;2.20;;;0.57;;
69748;SDS011;57019;52.354;6.584;2022-12-07T05:22:51;3.33;;;0.60;;
69748;SDS011;57019;52.354;6.584;2022-12-07T05:25:16;3.37;;;0.80;;
69748;SDS011;57019;52.354;6.584;2022-12-07T05:27:41;3.17;;;0.80;;
69748;SDS011;57019;52.354;6.584;2022-12-07T05:30:07;1.33;;;0.50;;
69748;SDS011;57019;52.354;6.584;2022-12-07T05:32:33;1.83;;;0.47;;
69748;SDS011;57019;52.354;6.584;2022-12-07T05:34:58;3.43;;;0.60;;
69748;SDS011;57019;52.354;6.584;2022-12-07T05:37:25;2.08;;;0.50;;
69748;SDS011;57019;52.354;6.584;2022-12-07T05:39:50;2.73;;;0.70;;
69748;SDS011;57019;52.354;6.584;2022-12-07T05:42:15;3.73;;;0.77;;
69748;SDS011;57019;52.354;6.584;2022-12-07T05:44:42;3.47;;;0.60;;
69748;SDS011;57019;52.354;6.584;2022-12-07T05:47:10;3.75;;;0.75;;
69748;SDS011;57019;52.354;6.584;2022-12-07T05:49:36;2.37;;;0.50;;
69748;SDS011;57019;52.354;6.584;2022-12-07T05:52:17;2.75;;;0.68;;
69748;SDS011;57019;52.354;6.584;2022-12-07T05:54:43;2.00;;;0.53;;
69748;SDS011;57019;52.354;6.584;2022-12-07T05:57:08;1.60;;;0.50;;
69748;SDS011;57019;52.354;6.584;2022-12-07T05:59:33;2.43;;;0.60;;
69748;SDS011;57019;52.354;6.584;2022-12-07T06:04:26;2.70;;;0.60;;
69748;SDS011;57019;52.354;6.584;2022-12-07T06:06:54;3.92;;;0.70;;
69748;SDS011;57019;52.354;6.584;2022-12-07T06:09:20;2.15;;;0.50;;
69748;SDS011;57019;52.354;6.584;2022-12-07T06:11:47;3.17;;;0.60;;
69748;SDS011;57019;52.354;6.584;2022-12-07T06:14:31;2.57;;;0.60;;
69748;SDS011;57019;52.354;6.584;2022-12-07T06:16:57;2.57;;;0.60;;
69748;SDS011;57019;52.354;6.584;2022-12-07T06:19:23;2.90;;;0.70;;
69748;SDS011;57019;52.354;6.584;2022-12-07T06:21:48;2.63;;;0.50;;
69748;SDS011;57019;52.354;6.584;2022-12-07T06:24:14;2.92;;;0.50;;
69748;SDS011;57019;52.354;6.584;2022-12-07T06:26:40;2.40;;;0.60;;
69748;SDS011;57019;52.354;6.584;2022-12-07T06:29:06;4.07;;;0.65;;
69748;SDS011;57019;52.354;6.584;2022-12-07T06:31:32;4.00;;;0.70;;
69748;SDS011;57019;52.354;6.584;2022-12-07T06:34:01;6.13;;;0.68;;
69748;SDS011;57019;52.354;6.584;2022-12-07T06:36:53;4.78;;;0.70;;
69748;SDS011;57019;52.354;6.584;2022-12-07T06:39:23;3.73;;;0.60;;
69748;SDS011;57019;52.354;6.584;2022-12-07T06:41:51;3.83;;;0.50;;
69748;SDS011;57019;52.354;6.584;2022-12-07T06:44:17;7.40;;;0.63;;
69748;SDS011;57019;52.354;6.584;2022-12-07T06:46:42;4.00;;;0.70;;
69748;SDS011;57019;52.354;6.584;2022-12-07T06:49:08;9.90;;;1.30;;
69748;SDS011;57019;52.354;6.584;2022-12-07T06:51:34;10.33;;;1.70;;
69748;SDS011;57019;52.354;6.584;2022-12-07T06:54:01;12.75;;;1.80;;
69748;SDS011;57019;52.354;6.584;2022-12-07T06:56:27;12.48;;;1.85;;
69748;SDS011;57019;52.354;6.584;2022-12-07T06:58:53;9.95;;;1.58;;
69748;SDS011;57019;52.354;6.584;2022-12-07T07:01:19;16.13;;;1.93;;
69748;SDS011;57019;52.354;6.584;2022-12-07T07:03:45;13.83;;;1.80;;
69748;SDS011;57019;52.354;6.584;2022-12-07T07:06:11;10.18;;;1.40;;
69748;SDS011;57019;52.354;6.584;2022-12-07T07:08:37;12.00;;;1.60;;
69748;SDS011;57019;52.354;6.584;2022-12-07T07:11:04;10.10;;;1.80;;
69748;SDS011;57019;52.354;6.584;2022-12-07T07:13:30;9.38;;;1.40;;
69748;SDS011;57019;52.354;6.584;2022-12-07T07:15:56;10.05;;;1.75;;
69748;SDS011;57019;52.354;6.584;2022-12-07T07:18:21;10.27;;;1.47;;
69748;SDS011;57019;52.354;6.584;2022-12-07T07:20:47;9.43;;;1.20;;
69748;SDS011;57019;52.354;6.584;2022-12-07T07:23:12;9.60;;;1.40;;
69748;SDS011;57019;52.354;6.584;2022-12-07T07:25:38;8.70;;;1.30;;
69748;SDS011;57019;52.354;6.584;2022-12-07T07:28:03;9.60;;;1.20;;
69748;SDS011;57019;52.354;6.584;2022-12-07T07:30:29;8.00;;;1.10;;
69748;SDS011;57019;52.354;6.584;2022-12-07T07:32:56;10.13;;;1.30;;
69748;SDS011;57019;52.354;6.584;2022-12-07T07:35:30;8.03;;;1.10;;
69748;SDS011;57019;52.354;6.584;2022-12-07T07:37:57;7.40;;;1.20;;
69748;SDS011;57019;52.354;6.584;2022-12-07T07:40:23;9.23;;;1.30;;
69748;SDS011;57019;52.354;6.584;2022-12-07T07:42:50;9.27;;;1.10;;
69748;SDS011;57019;52.354;6.584;2022-12-07T07:45:17;5.32;;;0.90;;
69748;SDS011;57019;52.354;6.584;2022-12-07T07:47:43;6.50;;;1.10;;
69748;SDS011;57019;52.354;6.584;2022-12-07T07:50:08;5.53;;;0.90;;
69748;SDS011;57019;52.354;6.584;2022-12-07T07:52:34;7.03;;;1.10;;
69748;SDS011;57019;52.354;6.584;2022-12-07T07:54:59;4.83;;;0.80;;
69748;SDS011;57019;52.354;6.584;2022-12-07T07:57:25;6.00;;;1.00;;
69748;SDS011;57019;52.354;6.584;2022-12-07T07:59:50;5.07;;;1.03;;
69748;SDS011;57019;52.354;6.584;2022-12-07T08:02:17;5.57;;;0.90;;
69748;SDS011;57019;52.354;6.584;2022-12-07T08:04:44;6.63;;;0.88;;
69748;SDS011;57019;52.354;6.584;2022-12-07T08:07:10;6.13;;;0.90;;
69748;SDS011;57019;52.354;6.584;2022-12-07T08:09:36;4.50;;;0.90;;
69748;SDS011;57019;52.354;6.584;2022-12-07T08:12:01;5.90;;;0.90;;
69748;SDS011;57019;52.354;6.584;2022-12-07T08:14:26;5.47;;;0.90;;
69748;SDS011;57019;52.354;6.584;2022-12-07T08:16:53;4.70;;;0.88;;
69748;SDS011;57019;52.354;6.584;2022-12-07T08:19:19;5.43;;;1.00;;
69748;SDS011;57019;52.354;6.584;2022-12-07T08:21:44;6.80;;;1.10;;
69748;SDS011;57019;52.354;6.584;2022-12-07T08:24:09;5.53;;;0.87;;
69748;SDS011;57019;52.354;6.584;2022-12-07T08:26:35;5.50;;;0.80;;
69748;SDS011;57019;52.354;6.584;2022-12-07T08:29:00;5.87;;;0.90;;
69748;SDS011;57019;52.354;6.584;2022-12-07T08:31:26;6.10;;;1.30;;
69748;SDS011;57019;52.354;6.584;2022-12-07T08:33:52;6.53;;;1.05;;
69748;SDS011;57019;52.354;6.584;2022-12-07T08:36:18;4.93;;;0.90;;
69748;SDS011;57019;52.354;6.584;2022-12-07T08:38:43;5.10;;;0.80;;
69748;SDS011;57019;52.354;6.584;2022-12-07T08:41:09;7.25;;;1.10;;
69748;SDS011;57019;52.354;6.584;2022-12-07T08:43:34;5.63;;;0.80;;
69748;SDS011;57019;52.354;6.584;2022-12-07T08:46:05;7.75;;;1.17;;
69748;SDS011;57019;52.354;6.584;2022-12-07T08:48:34;4.03;;;0.70;;
69748;SDS011;57019;52.354;6.584;2022-12-07T08:51:01;6.55;;;1.10;;
69748;SDS011;57019;52.354;6.584;2022-12-07T08:53:27;6.57;;;1.10;;
69748;SDS011;57019;52.354;6.584;2022-12-07T08:55:54;6.55;;;1.00;;
69748;SDS011;57019;52.354;6.584;2022-12-07T08:58:21;6.15;;;1.20;;
69748;SDS011;57019;52.354;6.584;2022-12-07T09:00:47;4.83;;;0.90;;
69748;SDS011;57019;52.354;6.584;2022-12-07T09:03:12;5.33;;;0.90;;
69748;SDS011;57019;52.354;6.584;2022-12-07T09:05:37;7.90;;;1.20;;
69748;SDS011;57019;52.354;6.584;2022-12-07T09:08:03;6.70;;;1.07;;
69748;SDS011;57019;52.354;6.584;2022-12-07T09:10:28;6.25;;;1.02;;
69748;SDS011;57019;52.354;6.584;2022-12-07T09:12:54;4.50;;;0.80;;
69748;SDS011;57019;52.354;6.584;2022-12-07T09:15:19;5.97;;;1.03;;
69748;SDS011;57019;52.354;6.584;2022-12-07T09:17:45;5.45;;;0.90;;
69748;SDS011;57019;52.354;6.584;2022-12-07T09:20:10;4.30;;;0.80;;
69748;SDS011;57019;52.354;6.584;2022-12-07T09:22:36;4.67;;;0.70;;
69748;SDS011;57019;52.354;6.584;2022-12-07T09:25:02;3.13;;;0.73;;
69748;SDS011;57019;52.354;6.584;2022-12-07T09:27:28;3.73;;;0.80;;
69748;SDS011;57019;52.354;6.584;2022-12-07T09:29:54;3.17;;;0.80;;
69748;SDS011;57019;52.354;6.584;2022-12-07T09:32:19;4.37;;;0.90;;
69748;SDS011;57019;52.354;6.584;2022-12-07T09:34:45;5.40;;;0.90;;
69748;SDS011;57019;52.354;6.584;2022-12-07T09:37:10;8.43;;;1.00;;
69748;SDS011;57019;52.354;6.584;2022-12-07T09:39:39;5.37;;;0.87;;
69748;SDS011;57019;52.354;6.584;2022-12-07T09:42:06;4.35;;;0.85;;
69748;SDS011;57019;52.354;6.584;2022-12-07T09:44:32;5.35;;;1.10;;
69748;SDS011;57019;52.354;6.584;2022-12-07T09:46:58;4.33;;;1.00;;
69748;SDS011;57019;52.354;6.584;2022-12-07T09:49:24;4.70;;;0.80;;
69748;SDS011;57019;52.354;6.584;2022-12-07T09:54:34;4.77;;;0.70;;
69748;SDS011;57019;52.354;6.584;2022-12-07T09:57:01;3.13;;;0.70;;
69748;SDS011;57019;52.354;6.584;2022-12-07T09:59:27;5.43;;;0.90;;
69748;SDS011;57019;52.354;6.584;2022-12-07T10:01:53;9.17;;;1.20;;
69748;SDS011;57019;52.354;6.584;2022-12-07T10:04:20;5.10;;;1.03;;
69748;SDS011;57019;52.354;6.584;2022-12-07T10:06:48;4.07;;;0.93;;
69748;SDS011;57019;52.354;6.584;2022-12-07T10:09:16;4.93;;;0.90;;
69748;SDS011;57019;52.354;6.584;2022-12-07T10:12:00;4.75;;;0.90;;
69748;SDS011;57019;52.354;6.584;2022-12-07T10:14:29;5.30;;;0.80;;
69748;SDS011;57019;52.354;6.584;2022-12-07T10:16:55;3.77;;;0.80;;
69748;SDS011;57019;52.354;6.584;2022-12-07T10:22:02;3.90;;;0.77;;
69748;SDS011;57019;52.354;6.584;2022-12-07T10:24:30;5.07;;;0.90;;
69748;SDS011;57019;52.354;6.584;2022-12-07T10:26:56;4.00;;;0.93;;
69748;SDS011;57019;52.354;6.584;2022-12-07T10:29:32;4.10;;;0.98;;
69748;SDS011;57019;52.354;6.584;2022-12-07T10:32:05;4.25;;;0.70;;
69748;SDS011;57019;52.354;6.584;2022-12-07T10:34:32;2.63;;;0.65;;
69748;SDS011;57019;52.354;6.584;2022-12-07T10:44:47;4.80;;;0.90;;
69748;SDS011;57019;52.354;6.584;2022-12-07T10:58:31;2.30;;;0.60;;
69748;SDS011;57019;52.354;6.584;2022-12-07T11:17:45;3.63;;;0.80;;
69748;SDS011;57019;52.354;6.584;2022-12-07T11:20:39;4.88;;;0.80;;
69748;SDS011;57019;52.354;6.584;2022-12-07T11:38:11;6.18;;;0.80;;
69748;SDS011;57019;52.354;6.584;2022-12-07T11:40:38;3.55;;;0.70;;
69748;SDS011;57019;52.354;6.584;2022-12-07T11:48:25;3.20;;;0.70;;
69748;SDS011;57019;52.354;6.584;2022-12-07T11:51:17;3.67;;;0.85;;
69748;SDS011;57019;52.354;6.584;2022-12-07T11:53:56;5.05;;;0.70;;
69748;SDS011;57019;52.354;6.584;2022-12-07T11:56:27;5.90;;;0.90;;
69748;SDS011;57019;52.354;6.584;2022-12-07T12:04:34;4.03;;;0.93;;
69748;SDS011;57019;52.354;6.584;2022-12-07T12:07:40;2.67;;;0.60;;
69748;SDS011;57019;52.354;6.584;2022-12-07T12:10:44;3.03;;;0.70;;
69748;SDS011;57019;52.354;6.584;2022-12-07T12:15:58;4.20;;;0.70;;
69748;SDS011;57019;52.354;6.584;2022-12-07T12:21:09;8.77;;;1.00;;
69748;SDS011;57019;52.354;6.584;2022-12-07T12:26:19;5.83;;;1.00;;
69748;SDS011;57019;52.354;6.584;2022-12-07T12:28:57;4.82;;;0.85;;
69748;SDS011;57019;52.354;6.584;2022-12-07T12:33:52;8.77;;;1.23;;
69748;SDS011;57019;52.354;6.584;2022-12-07T12:36:23;7.88;;;1.33;;
69748;SDS011;57019;52.354;6.584;2022-12-07T12:53:05;11.05;;;1.20;;
69748;SDS011;57019;52.354;6.584;2022-12-07T13:00:43;7.95;;;1.20;;
69748;SDS011;57019;52.354;6.584;2022-12-07T13:03:24;10.20;;;1.50;;
69748;SDS011;57019;52.354;6.584;2022-12-07T13:06:17;6.22;;;1.00;;
69748;SDS011;57019;52.354;6.584;2022-12-07T13:09:00;5.53;;;1.00;;
69748;SDS011;57019;52.354;6.584;2022-12-07T13:17:07;9.38;;;1.50;;
69748;SDS011;57019;52.354;6.584;2022-12-07T13:24:56;8.45;;;1.10;;
69748;SDS011;57019;52.354;6.584;2022-12-07T13:27:24;4.97;;;0.85;;
69748;SDS011;57019;52.354;6.584;2022-12-07T13:29:51;12.82;;;1.20;;
69748;SDS011;57019;52.354;6.584;2022-12-07T13:32:25;11.50;;;1.35;;
69748;SDS011;57019;52.354;6.584;2022-12-07T13:34:57;7.43;;;1.33;;
69748;SDS011;57019;52.354;6.584;2022-12-07T13:37:26;5.53;;;1.00;;
69748;SDS011;57019;52.354;6.584;2022-12-07T13:39:57;5.17;;;1.00;;
69748;SDS011;57019;52.354;6.584;2022-12-07T13:42:30;6.57;;;1.13;;
69748;SDS011;57019;52.354;6.584;2022-12-07T13:44:58;6.20;;;1.00;;
69748;SDS011;57019;52.354;6.584;2022-12-07T13:47:32;5.70;;;0.80;;
69748;SDS011;57019;52.354;6.584;2022-12-07T13:50:26;6.30;;;1.20;;
69748;SDS011;57019;52.354;6.584;2022-12-07T13:52:56;7.03;;;1.10;;
69748;SDS011;57019;52.354;6.584;2022-12-07T13:55:23;5.47;;;1.00;;
69748;SDS011;57019;52.354;6.584;2022-12-07T13:57:51;8.40;;;1.33;;
69748;SDS011;57019;52.354;6.584;2022-12-07T14:00:21;6.63;;;1.10;;
69748;SDS011;57019;52.354;6.584;2022-12-07T14:02:59;5.60;;;1.10;;
69748;SDS011;57019;52.354;6.584;2022-12-07T14:05:27;6.30;;;1.40;;
69748;SDS011;57019;52.354;6.584;2022-12-07T14:10:26;5.47;;;1.10;;
69748;SDS011;57019;52.354;6.584;2022-12-07T14:13:00;6.85;;;1.10;;
69748;SDS011;57019;52.354;6.584;2022-12-07T14:15:28;6.57;;;1.20;;
69748;SDS011;57019;52.354;6.584;2022-12-07T14:17:55;7.20;;;1.00;;
69748;SDS011;57019;52.354;6.584;2022-12-07T14:23:27;6.13;;;1.20;;
69748;SDS011;57019;52.354;6.584;2022-12-07T14:25:53;5.60;;;1.13;;
69748;SDS011;57019;52.354;6.584;2022-12-07T14:28:25;5.18;;;1.05;;
69748;SDS011;57019;52.354;6.584;2022-12-07T14:30:52;6.80;;;1.10;;
69748;SDS011;57019;52.354;6.584;2022-12-07T14:33:25;5.37;;;0.83;;
69748;SDS011;57019;52.354;6.584;2022-12-07T14:35:52;7.43;;;0.98;;
69748;SDS011;57019;52.354;6.584;2022-12-07T14:38:22;5.30;;;0.73;;
69748;SDS011;57019;52.354;6.584;2022-12-07T14:40:49;8.45;;;1.08;;
69748;SDS011;57019;52.354;6.584;2022-12-07T14:43:16;4.75;;;0.93;;
69748;SDS011;57019;52.354;6.584;2022-12-07T14:45:42;5.43;;;0.80;;
69748;SDS011;57019;52.354;6.584;2022-12-07T14:48:11;8.43;;;1.00;;
69748;SDS011;57019;52.354;6.584;2022-12-07T14:50:40;4.68;;;1.00;;
69748;SDS011;57019;52.354;6.584;2022-12-07T14:53:12;5.80;;;1.00;;
69748;SDS011;57019;52.354;6.584;2022-12-07T14:55:40;6.40;;;0.85;;
69748;SDS011;57019;52.354;6.584;2022-12-07T14:58:05;4.73;;;0.93;;
69748;SDS011;57019;52.354;6.584;2022-12-07T15:00:30;7.17;;;1.03;;
69748;SDS011;57019;52.354;6.584;2022-12-07T15:02:56;8.60;;;1.10;;
69748;SDS011;57019;52.354;6.584;2022-12-07T15:05:22;4.85;;;1.05;;
69748;SDS011;57019;52.354;6.584;2022-12-07T15:07:47;5.93;;;1.10;;
69748;SDS011;57019;52.354;6.584;2022-12-07T15:10:21;6.35;;;1.30;;
69748;SDS011;57019;52.354;6.584;2022-12-07T15:12:48;4.90;;;0.98;;
69748;SDS011;57019;52.354;6.584;2022-12-07T15:15:13;5.50;;;0.87;;
69748;SDS011;57019;52.354;6.584;2022-12-07T15:17:39;6.63;;;1.00;;
69748;SDS011;57019;52.354;6.584;2022-12-07T15:20:05;6.13;;;1.20;;
69748;SDS011;57019;52.354;6.584;2022-12-07T15:22:32;4.87;;;0.90;;
69748;SDS011;57019;52.354;6.584;2022-12-07T15:24:58;4.93;;;1.00;;
69748;SDS011;57019;52.354;6.584;2022-12-07T15:27:23;5.70;;;1.03;;
69748;SDS011;57019;52.354;6.584;2022-12-07T15:29:48;6.33;;;1.10;;
69748;SDS011;57019;52.354;6.584;2022-12-07T15:32:14;4.93;;;1.00;;
69748;SDS011;57019;52.354;6.584;2022-12-07T15:34:39;4.43;;;0.90;;
69748;SDS011;57019;52.354;6.584;2022-12-07T15:37:05;5.20;;;1.30;;
69748;SDS011;57019;52.354;6.584;2022-12-07T15:39:31;4.55;;;0.95;;
69748;SDS011;57019;52.354;6.584;2022-12-07T15:41:56;4.30;;;1.08;;
69748;SDS011;57019;52.354;6.584;2022-12-07T15:44:22;5.73;;;1.10;;
69748;SDS011;57019;52.354;6.584;2022-12-07T15:47:05;4.57;;;1.10;;
69748;SDS011;57019;52.354;6.584;2022-12-07T15:49:31;4.85;;;1.00;;
69748;SDS011;57019;52.354;6.584;2022-12-07T15:51:56;5.67;;;1.10;;
69748;SDS011;57019;52.354;6.584;2022-12-07T15:54:23;5.47;;;1.10;;
69748;SDS011;57019;52.354;6.584;2022-12-07T15:56:50;4.47;;;1.17;;
69748;SDS011;57019;52.354;6.584;2022-12-07T15:59:17;5.55;;;1.00;;
69748;SDS011;57019;52.354;6.584;2022-12-07T16:01:42;4.67;;;1.10;;
69748;SDS011;57019;52.354;6.584;2022-12-07T16:04:08;4.60;;;1.10;;
69748;SDS011;57019;52.354;6.584;2022-12-07T16:06:33;8.10;;;1.00;;
69748;SDS011;57019;52.354;6.584;2022-12-07T16:08:59;5.27;;;1.10;;
69748;SDS011;57019;52.354;6.584;2022-12-07T16:11:25;4.20;;;0.95;;
69748;SDS011;57019;52.354;6.584;2022-12-07T16:13:51;5.13;;;1.10;;
69748;SDS011;57019;52.354;6.584;2022-12-07T16:16:18;4.47;;;0.80;;
69748;SDS011;57019;52.354;6.584;2022-12-07T16:18:44;5.33;;;1.00;;
69748;SDS011;57019;52.354;6.584;2022-12-07T16:21:10;7.78;;;1.48;;
69748;SDS011;57019;52.354;6.584;2022-12-07T16:23:36;7.87;;;1.63;;
69748;SDS011;57019;52.354;6.584;2022-12-07T16:26:05;8.33;;;1.90;;
69748;SDS011;57019;52.354;6.584;2022-12-07T16:28:38;12.00;;;3.75;;
69748;SDS011;57019;52.354;6.584;2022-12-07T16:31:05;15.70;;;5.27;;
69748;SDS011;57019;52.354;6.584;2022-12-07T16:33:36;18.95;;;7.20;;
69748;SDS011;57019;52.354;6.584;2022-12-07T16:36:03;36.85;;;7.80;;
69748;SDS011;57019;52.354;6.584;2022-12-07T16:38:31;17.20;;;6.60;;
69748;SDS011;57019;52.354;6.584;2022-12-07T16:41:00;21.60;;;6.22;;
69748;SDS011;57019;52.354;6.584;2022-12-07T16:43:25;17.93;;;5.90;;
69748;SDS011;57019;52.354;6.584;2022-12-07T16:45:50;19.67;;;5.70;;
69748;SDS011;57019;52.354;6.584;2022-12-07T16:48:16;13.35;;;5.38;;
69748;SDS011;57019;52.354;6.584;2022-12-07T16:50:42;14.70;;;4.40;;
69748;SDS011;57019;52.354;6.584;2022-12-07T16:53:09;16.17;;;3.90;;
69748;SDS011;57019;52.354;6.584;2022-12-07T16:55:35;13.73;;;4.03;;
69748;SDS011;57019;52.354;6.584;2022-12-07T16:58:02;14.70;;;4.18;;
69748;SDS011;57019;52.354;6.584;2022-12-07T17:00:27;13.40;;;3.13;;
69748;SDS011;57019;52.354;6.584;2022-12-07T17:02:53;10.17;;;3.27;;
69748;SDS011;57019;52.354;6.584;2022-12-07T17:05:20;11.15;;;2.80;;
69748;SDS011;57019;52.354;6.584;2022-12-07T17:07:45;9.33;;;2.60;;
69748;SDS011;57019;52.354;6.584;2022-12-07T17:10:10;13.33;;;2.77;;
69748;SDS011;57019;52.354;6.584;2022-12-07T17:12:36;9.40;;;2.20;;
69748;SDS011;57019;52.354;6.584;2022-12-07T17:15:01;8.80;;;2.50;;
69748;SDS011;57019;52.354;6.584;2022-12-07T17:17:45;9.00;;;2.17;;
69748;SDS011;57019;52.354;6.584;2022-12-07T17:20:12;11.05;;;3.13;;